sensor_id;sensor_type;location;lat;lon;timestamp;P1;durP1;ratioP1;P2;durP2;ratioP2
29568;SDS011;16501;51.462;14.346;2024-03-22T00:01:52;16.08;;;10.65;;
29568;SDS011;16501;51.462;14.346;2024-03-22T00:04:19;19.77;;;12.95;;
29568;SDS011;16501;51.462;14.346;2024-03-22T00:06:45;17.85;;;11.85;;
29568;SDS011;16501;51.462;14.346;2024-03-22T00:09:19;17.58;;;11.60;;
29568;SDS011;16501;51.462;14.346;2024-03-22T00:11:44;20.27;;;12.63;;
29568;SDS011;16501;51.462;14.346;2024-03-22T00:14:09;18.10;;;11.88;;
29568;SDS011;16501;51.462;14.346;2024-03-22T00:16:35;18.10;;;12.43;;
29568;SDS011;16501;51.462;14.346;2024-03-22T00:19:01;20.67;;;12.48;;
29568;SDS011;16501;51.462;14.346;2024-03-22T00:21:27;20.13;;;13.25;;
29568;SDS011;16501;51.462;14.346;2024-03-22T00:23:53;17.50;;;12.25;;
29568;SDS011;16501;51.462;14.346;2024-03-22T00:26:18;22.00;;;12.82;;
29568;SDS011;16501;51.462;14.346;2024-03-22T00:28:43;22.00;;;12.60;;
29568;SDS011;16501;51.462;14.346;2024-03-22T00:31:09;23.00;;;12.73;;
29568;SDS011;16501;51.462;14.346;2024-03-22T00:33:34;17.73;;;12.70;;
29568;SDS011;16501;51.462;14.346;2024-03-22T00:36:00;18.83;;;12.70;;
29568;SDS011;16501;51.462;14.346;2024-03-22T00:38:25;21.83;;;13.25;;
29568;SDS011;16501;51.462;14.346;2024-03-22T00:40:50;21.98;;;11.90;;
29568;SDS011;16501;51.462;14.346;2024-03-22T00:43:16;20.10;;;13.35;;
29568;SDS011;16501;51.462;14.346;2024-03-22T00:45:41;21.00;;;12.65;;
29568;SDS011;16501;51.462;14.346;2024-03-22T00:48:06;25.40;;;12.82;;
29568;SDS011;16501;51.462;14.346;2024-03-22T00:50:32;18.27;;;11.68;;
29568;SDS011;16501;51.462;14.346;2024-03-22T00:52:57;21.55;;;13.30;;
29568;SDS011;16501;51.462;14.346;2024-03-22T00:55:23;21.00;;;12.73;;
29568;SDS011;16501;51.462;14.346;2024-03-22T00:57:48;19.35;;;12.63;;
29568;SDS011;16501;51.462;14.346;2024-03-22T01:00:14;23.17;;;13.55;;
29568;SDS011;16501;51.462;14.346;2024-03-22T01:02:40;20.70;;;12.52;;
29568;SDS011;16501;51.462;14.346;2024-03-22T01:05:05;21.80;;;13.13;;
29568;SDS011;16501;51.462;14.346;2024-03-22T01:07:31;21.67;;;13.27;;
29568;SDS011;16501;51.462;14.346;2024-03-22T01:09:56;19.70;;;12.73;;
29568;SDS011;16501;51.462;14.346;2024-03-22T01:12:21;23.80;;;14.70;;
29568;SDS011;16501;51.462;14.346;2024-03-22T01:14:47;20.50;;;13.35;;
29568;SDS011;16501;51.462;14.346;2024-03-22T01:17:12;20.45;;;13.30;;
29568;SDS011;16501;51.462;14.346;2024-03-22T01:19:37;24.45;;;13.43;;
29568;SDS011;16501;51.462;14.346;2024-03-22T01:22:02;27.55;;;14.05;;
29568;SDS011;16501;51.462;14.346;2024-03-22T01:24:28;24.27;;;13.90;;
29568;SDS011;16501;51.462;14.346;2024-03-22T01:26:53;22.02;;;12.93;;
29568;SDS011;16501;51.462;14.346;2024-03-22T01:29:18;24.17;;;14.52;;
29568;SDS011;16501;51.462;14.346;2024-03-22T01:31:44;21.42;;;14.23;;
29568;SDS011;16501;51.462;14.346;2024-03-22T01:34:09;21.67;;;14.20;;
29568;SDS011;16501;51.462;14.346;2024-03-22T01:36:34;24.45;;;14.20;;
29568;SDS011;16501;51.462;14.346;2024-03-22T01:38:59;23.58;;;13.85;;
29568;SDS011;16501;51.462;14.346;2024-03-22T01:41:25;20.50;;;12.60;;
29568;SDS011;16501;51.462;14.346;2024-03-22T01:43:50;23.58;;;13.95;;
29568;SDS011;16501;51.462;14.346;2024-03-22T01:46:15;25.77;;;14.13;;
29568;SDS011;16501;51.462;14.346;2024-03-22T01:48:41;20.25;;;12.82;;
29568;SDS011;16501;51.462;14.346;2024-03-22T01:51:06;20.90;;;13.18;;
29568;SDS011;16501;51.462;14.346;2024-03-22T01:53:32;24.05;;;12.60;;
29568;SDS011;16501;51.462;14.346;2024-03-22T01:55:59;21.20;;;13.60;;
29568;SDS011;16501;51.462;14.346;2024-03-22T01:58:25;21.75;;;13.00;;
29568;SDS011;16501;51.462;14.346;2024-03-22T02:00:50;19.13;;;12.23;;
29568;SDS011;16501;51.462;14.346;2024-03-22T02:03:15;22.80;;;12.20;;
29568;SDS011;16501;51.462;14.346;2024-03-22T02:05:41;22.20;;;12.73;;
29568;SDS011;16501;51.462;14.346;2024-03-22T02:08:06;19.30;;;12.18;;
29568;SDS011;16501;51.462;14.346;2024-03-22T02:10:31;21.58;;;12.40;;
29568;SDS011;16501;51.462;14.346;2024-03-22T02:12:57;19.77;;;13.18;;
29568;SDS011;16501;51.462;14.346;2024-03-22T02:15:22;18.63;;;11.73;;
29568;SDS011;16501;51.462;14.346;2024-03-22T02:17:47;19.05;;;11.50;;
29568;SDS011;16501;51.462;14.346;2024-03-22T02:20:13;19.55;;;12.23;;
29568;SDS011;16501;51.462;14.346;2024-03-22T02:22:38;19.05;;;11.43;;
29568;SDS011;16501;51.462;14.346;2024-03-22T02:25:03;16.70;;;11.27;;
29568;SDS011;16501;51.462;14.346;2024-03-22T02:27:29;23.27;;;13.15;;
29568;SDS011;16501;51.462;14.346;2024-03-22T02:29:54;20.88;;;11.73;;
29568;SDS011;16501;51.462;14.346;2024-03-22T02:32:19;19.73;;;11.45;;
29568;SDS011;16501;51.462;14.346;2024-03-22T02:34:45;20.27;;;12.15;;
29568;SDS011;16501;51.462;14.346;2024-03-22T02:37:10;18.05;;;11.40;;
29568;SDS011;16501;51.462;14.346;2024-03-22T02:39:35;18.25;;;11.45;;
29568;SDS011;16501;51.462;14.346;2024-03-22T02:42:00;21.80;;;12.10;;
29568;SDS011;16501;51.462;14.346;2024-03-22T02:44:26;20.05;;;11.15;;
29568;SDS011;16501;51.462;14.346;2024-03-22T02:46:51;19.63;;;12.00;;
29568;SDS011;16501;51.462;14.346;2024-03-22T02:49:16;19.00;;;11.73;;
29568;SDS011;16501;51.462;14.346;2024-03-22T02:51:41;16.83;;;11.07;;
29568;SDS011;16501;51.462;14.346;2024-03-22T02:54:07;18.13;;;10.88;;
29568;SDS011;16501;51.462;14.346;2024-03-22T02:56:32;17.65;;;10.98;;
29568;SDS011;16501;51.462;14.346;2024-03-22T02:58:57;18.33;;;11.25;;
29568;SDS011;16501;51.462;14.346;2024-03-22T03:01:22;15.90;;;10.35;;
29568;SDS011;16501;51.462;14.346;2024-03-22T03:03:48;18.98;;;10.65;;
29568;SDS011;16501;51.462;14.346;2024-03-22T03:06:13;17.90;;;10.55;;
29568;SDS011;16501;51.462;14.346;2024-03-22T03:08:39;18.13;;;10.55;;
29568;SDS011;16501;51.462;14.346;2024-03-22T03:11:04;18.75;;;11.05;;
29568;SDS011;16501;51.462;14.346;2024-03-22T03:13:29;19.42;;;11.20;;
29568;SDS011;16501;51.462;14.346;2024-03-22T03:15:55;20.17;;;11.25;;
29568;SDS011;16501;51.462;14.346;2024-03-22T03:18:20;18.70;;;10.48;;
29568;SDS011;16501;51.462;14.346;2024-03-22T03:20:45;17.70;;;10.57;;
29568;SDS011;16501;51.462;14.346;2024-03-22T03:23:11;16.42;;;10.05;;
29568;SDS011;16501;51.462;14.346;2024-03-22T03:25:36;14.05;;;9.73;;
29568;SDS011;16501;51.462;14.346;2024-03-22T03:28:01;21.58;;;11.32;;
29568;SDS011;16501;51.462;14.346;2024-03-22T03:30:27;17.38;;;10.40;;
29568;SDS011;16501;51.462;14.346;2024-03-22T03:32:52;16.17;;;10.18;;
29568;SDS011;16501;51.462;14.346;2024-03-22T03:35:17;18.98;;;10.88;;
29568;SDS011;16501;51.462;14.346;2024-03-22T03:37:42;16.77;;;10.77;;
29568;SDS011;16501;51.462;14.346;2024-03-22T03:40:08;16.42;;;9.70;;
29568;SDS011;16501;51.462;14.346;2024-03-22T03:42:33;16.40;;;11.35;;
29568;SDS011;16501;51.462;14.346;2024-03-22T03:44:59;16.30;;;10.10;;
29568;SDS011;16501;51.462;14.346;2024-03-22T03:47:24;20.15;;;10.45;;
29568;SDS011;16501;51.462;14.346;2024-03-22T03:49:49;18.08;;;10.90;;
29568;SDS011;16501;51.462;14.346;2024-03-22T03:52:14;16.88;;;9.85;;
29568;SDS011;16501;51.462;14.346;2024-03-22T03:54:39;19.08;;;11.23;;
29568;SDS011;16501;51.462;14.346;2024-03-22T03:57:05;19.35;;;10.57;;
29568;SDS011;16501;51.462;14.346;2024-03-22T03:59:30;19.65;;;10.85;;
29568;SDS011;16501;51.462;14.346;2024-03-22T04:01:55;17.38;;;10.38;;
29568;SDS011;16501;51.462;14.346;2024-03-22T04:04:21;18.70;;;11.32;;
29568;SDS011;16501;51.462;14.346;2024-03-22T04:06:46;18.65;;;11.02;;
29568;SDS011;16501;51.462;14.346;2024-03-22T04:09:11;20.88;;;11.10;;
29568;SDS011;16501;51.462;14.346;2024-03-22T04:11:39;22.00;;;12.00;;
29568;SDS011;16501;51.462;14.346;2024-03-22T04:14:04;16.15;;;10.10;;
29568;SDS011;16501;51.462;14.346;2024-03-22T04:16:30;20.60;;;11.00;;
29568;SDS011;16501;51.462;14.346;2024-03-22T04:18:56;18.05;;;11.07;;
29568;SDS011;16501;51.462;14.346;2024-03-22T04:21:21;17.67;;;10.05;;
29568;SDS011;16501;51.462;14.346;2024-03-22T04:23:46;17.98;;;10.38;;
29568;SDS011;16501;51.462;14.346;2024-03-22T04:26:12;18.88;;;10.70;;
29568;SDS011;16501;51.462;14.346;2024-03-22T04:28:37;19.75;;;11.38;;
29568;SDS011;16501;51.462;14.346;2024-03-22T04:31:03;16.55;;;10.00;;
29568;SDS011;16501;51.462;14.346;2024-03-22T04:33:30;18.90;;;11.35;;
29568;SDS011;16501;51.462;14.346;2024-03-22T04:35:56;18.80;;;10.63;;
29568;SDS011;16501;51.462;14.346;2024-03-22T04:38:25;18.52;;;11.25;;
29568;SDS011;16501;51.462;14.346;2024-03-22T04:40:51;20.35;;;10.88;;
29568;SDS011;16501;51.462;14.346;2024-03-22T04:43:16;17.80;;;10.57;;
29568;SDS011;16501;51.462;14.346;2024-03-22T04:45:45;24.77;;;12.23;;
29568;SDS011;16501;51.462;14.346;2024-03-22T04:48:12;20.23;;;11.63;;
29568;SDS011;16501;51.462;14.346;2024-03-22T04:50:38;20.83;;;11.23;;
29568;SDS011;16501;51.462;14.346;2024-03-22T04:53:03;18.15;;;10.18;;
29568;SDS011;16501;51.462;14.346;2024-03-22T04:55:30;23.75;;;11.68;;
29568;SDS011;16501;51.462;14.346;2024-03-22T04:57:55;19.08;;;10.77;;
29568;SDS011;16501;51.462;14.346;2024-03-22T05:00:20;17.85;;;10.45;;
29568;SDS011;16501;51.462;14.346;2024-03-22T05:02:45;18.55;;;10.90;;
29568;SDS011;16501;51.462;14.346;2024-03-22T05:05:11;17.98;;;10.32;;
29568;SDS011;16501;51.462;14.346;2024-03-22T05:07:37;20.98;;;10.60;;
29568;SDS011;16501;51.462;14.346;2024-03-22T05:10:02;19.13;;;11.05;;
29568;SDS011;16501;51.462;14.346;2024-03-22T05:12:28;19.90;;;11.48;;
29568;SDS011;16501;51.462;14.346;2024-03-22T05:14:54;22.73;;;11.38;;
29568;SDS011;16501;51.462;14.346;2024-03-22T05:17:19;19.83;;;11.30;;
29568;SDS011;16501;51.462;14.346;2024-03-22T05:19:45;23.13;;;10.45;;
29568;SDS011;16501;51.462;14.346;2024-03-22T05:22:10;18.42;;;10.98;;
29568;SDS011;16501;51.462;14.346;2024-03-22T05:24:35;19.52;;;11.15;;
29568;SDS011;16501;51.462;14.346;2024-03-22T05:27:01;19.23;;;10.65;;
29568;SDS011;16501;51.462;14.346;2024-03-22T05:29:26;19.65;;;10.77;;
29568;SDS011;16501;51.462;14.346;2024-03-22T05:31:51;20.40;;;10.55;;
29568;SDS011;16501;51.462;14.346;2024-03-22T05:34:17;21.20;;;11.38;;
29568;SDS011;16501;51.462;14.346;2024-03-22T05:36:43;19.08;;;10.95;;
29568;SDS011;16501;51.462;14.346;2024-03-22T05:39:08;18.80;;;10.75;;
29568;SDS011;16501;51.462;14.346;2024-03-22T05:41:35;19.42;;;11.52;;
29568;SDS011;16501;51.462;14.346;2024-03-22T05:44:01;17.33;;;10.60;;
29568;SDS011;16501;51.462;14.346;2024-03-22T05:46:26;20.88;;;10.98;;
29568;SDS011;16501;51.462;14.346;2024-03-22T05:48:51;23.38;;;11.65;;
29568;SDS011;16501;51.462;14.346;2024-03-22T05:51:17;20.50;;;9.65;;
29568;SDS011;16501;51.462;14.346;2024-03-22T05:53:42;19.73;;;10.88;;
29568;SDS011;16501;51.462;14.346;2024-03-22T05:56:07;24.05;;;12.50;;
29568;SDS011;16501;51.462;14.346;2024-03-22T05:58:33;22.38;;;11.10;;
29568;SDS011;16501;51.462;14.346;2024-03-22T06:00:58;20.40;;;11.00;;
29568;SDS011;16501;51.462;14.346;2024-03-22T06:03:23;19.65;;;10.32;;
29568;SDS011;16501;51.462;14.346;2024-03-22T06:05:49;19.75;;;10.25;;
29568;SDS011;16501;51.462;14.346;2024-03-22T06:08:14;20.55;;;11.77;;
29568;SDS011;16501;51.462;14.346;2024-03-22T06:10:44;23.20;;;11.73;;
29568;SDS011;16501;51.462;14.346;2024-03-22T06:13:10;23.85;;;11.27;;
29568;SDS011;16501;51.462;14.346;2024-03-22T06:15:35;20.08;;;11.93;;
29568;SDS011;16501;51.462;14.346;2024-03-22T06:18:00;22.77;;;11.27;;
29568;SDS011;16501;51.462;14.346;2024-03-22T06:20:25;21.70;;;11.00;;
29568;SDS011;16501;51.462;14.346;2024-03-22T06:22:51;19.48;;;10.85;;
29568;SDS011;16501;51.462;14.346;2024-03-22T06:25:16;23.55;;;11.18;;
29568;SDS011;16501;51.462;14.346;2024-03-22T06:27:41;21.50;;;11.18;;
29568;SDS011;16501;51.462;14.346;2024-03-22T06:30:06;21.50;;;11.07;;
29568;SDS011;16501;51.462;14.346;2024-03-22T06:32:32;20.92;;;10.88;;
29568;SDS011;16501;51.462;14.346;2024-03-22T06:34:57;17.98;;;10.50;;
29568;SDS011;16501;51.462;14.346;2024-03-22T06:37:23;21.88;;;10.98;;
29568;SDS011;16501;51.462;14.346;2024-03-22T06:39:48;22.20;;;11.57;;
29568;SDS011;16501;51.462;14.346;2024-03-22T06:42:13;23.25;;;11.73;;
29568;SDS011;16501;51.462;14.346;2024-03-22T06:44:39;20.13;;;11.45;;
29568;SDS011;16501;51.462;14.346;2024-03-22T06:47:04;20.45;;;10.93;;
29568;SDS011;16501;51.462;14.346;2024-03-22T06:49:29;22.95;;;10.90;;
29568;SDS011;16501;51.462;14.346;2024-03-22T06:51:54;22.38;;;10.75;;
29568;SDS011;16501;51.462;14.346;2024-03-22T06:54:20;21.52;;;10.77;;
29568;SDS011;16501;51.462;14.346;2024-03-22T06:56:45;20.33;;;11.45;;
29568;SDS011;16501;51.462;14.346;2024-03-22T06:59:10;18.48;;;11.32;;
29568;SDS011;16501;51.462;14.346;2024-03-22T07:01:35;24.25;;;11.38;;
29568;SDS011;16501;51.462;14.346;2024-03-22T07:04:01;17.90;;;10.18;;
29568;SDS011;16501;51.462;14.346;2024-03-22T07:06:26;19.38;;;10.80;;
29568;SDS011;16501;51.462;14.346;2024-03-22T07:08:51;22.50;;;11.50;;
29568;SDS011;16501;51.462;14.346;2024-03-22T07:11:16;18.52;;;11.05;;
29568;SDS011;16501;51.462;14.346;2024-03-22T07:13:42;21.90;;;11.20;;
29568;SDS011;16501;51.462;14.346;2024-03-22T07:16:07;17.58;;;10.68;;
29568;SDS011;16501;51.462;14.346;2024-03-22T07:18:32;15.80;;;10.07;;
29568;SDS011;16501;51.462;14.346;2024-03-22T07:20:57;21.05;;;10.93;;
29568;SDS011;16501;51.462;14.346;2024-03-22T07:23:26;18.38;;;9.95;;
29568;SDS011;16501;51.462;14.346;2024-03-22T07:25:51;17.23;;;9.48;;
29568;SDS011;16501;51.462;14.346;2024-03-22T07:28:16;22.33;;;10.95;;
29568;SDS011;16501;51.462;14.346;2024-03-22T07:30:42;16.25;;;8.77;;
29568;SDS011;16501;51.462;14.346;2024-03-22T07:33:07;17.92;;;9.15;;
29568;SDS011;16501;51.462;14.346;2024-03-22T07:35:34;19.80;;;10.05;;
29568;SDS011;16501;51.462;14.346;2024-03-22T07:37:59;16.45;;;9.10;;
29568;SDS011;16501;51.462;14.346;2024-03-22T07:40:25;18.17;;;8.52;;
29568;SDS011;16501;51.462;14.346;2024-03-22T07:42:50;15.90;;;9.50;;
29568;SDS011;16501;51.462;14.346;2024-03-22T07:45:16;16.92;;;9.40;;
29568;SDS011;16501;51.462;14.346;2024-03-22T07:47:41;12.90;;;8.25;;
29568;SDS011;16501;51.462;14.346;2024-03-22T07:50:08;16.45;;;8.93;;
29568;SDS011;16501;51.462;14.346;2024-03-22T07:52:33;15.63;;;8.85;;
29568;SDS011;16501;51.462;14.346;2024-03-22T07:54:59;26.58;;;8.70;;
29568;SDS011;16501;51.462;14.346;2024-03-22T07:57:26;16.88;;;9.35;;
29568;SDS011;16501;51.462;14.346;2024-03-22T07:59:52;12.70;;;8.30;;
29568;SDS011;16501;51.462;14.346;2024-03-22T08:02:17;13.98;;;8.45;;
29568;SDS011;16501;51.462;14.346;2024-03-22T08:04:42;15.20;;;8.43;;
29568;SDS011;16501;51.462;14.346;2024-03-22T08:07:08;19.50;;;8.98;;
29568;SDS011;16501;51.462;14.346;2024-03-22T08:09:33;18.05;;;8.70;;
29568;SDS011;16501;51.462;14.346;2024-03-22T08:11:58;18.50;;;9.80;;
29568;SDS011;16501;51.462;14.346;2024-03-22T08:14:24;15.55;;;8.93;;
29568;SDS011;16501;51.462;14.346;2024-03-22T08:16:49;18.63;;;8.00;;
29568;SDS011;16501;51.462;14.346;2024-03-22T08:19:14;14.45;;;7.82;;
29568;SDS011;16501;51.462;14.346;2024-03-22T08:21:39;15.55;;;7.93;;
29568;SDS011;16501;51.462;14.346;2024-03-22T08:24:05;13.45;;;7.38;;
29568;SDS011;16501;51.462;14.346;2024-03-22T08:26:30;14.07;;;7.72;;
29568;SDS011;16501;51.462;14.346;2024-03-22T08:28:55;14.55;;;8.10;;
29568;SDS011;16501;51.462;14.346;2024-03-22T08:31:21;11.48;;;7.45;;
29568;SDS011;16501;51.462;14.346;2024-03-22T08:33:50;12.80;;;7.90;;
29568;SDS011;16501;51.462;14.346;2024-03-22T08:36:16;12.07;;;7.65;;
29568;SDS011;16501;51.462;14.346;2024-03-22T08:38:41;15.65;;;7.88;;
29568;SDS011;16501;51.462;14.346;2024-03-22T08:41:06;10.70;;;7.60;;
29568;SDS011;16501;51.462;14.346;2024-03-22T08:43:32;11.63;;;7.35;;
29568;SDS011;16501;51.462;14.346;2024-03-22T08:45:57;12.55;;;7.05;;
29568;SDS011;16501;51.462;14.346;2024-03-22T08:48:22;14.38;;;7.18;;
29568;SDS011;16501;51.462;14.346;2024-03-22T08:50:48;17.88;;;8.73;;
29568;SDS011;16501;51.462;14.346;2024-03-22T08:53:13;19.33;;;9.63;;
29568;SDS011;16501;51.462;14.346;2024-03-22T08:55:38;13.50;;;9.23;;
29568;SDS011;16501;51.462;14.346;2024-03-22T08:58:11;21.92;;;9.27;;
29568;SDS011;16501;51.462;14.346;2024-03-22T09:00:36;17.10;;;10.00;;
29568;SDS011;16501;51.462;14.346;2024-03-22T09:03:02;20.33;;;10.50;;
29568;SDS011;16501;51.462;14.346;2024-03-22T09:05:28;15.43;;;8.52;;
29568;SDS011;16501;51.462;14.346;2024-03-22T09:07:53;15.98;;;8.88;;
29568;SDS011;16501;51.462;14.346;2024-03-22T09:10:20;16.80;;;8.75;;
29568;SDS011;16501;51.462;14.346;2024-03-22T09:12:46;14.45;;;8.95;;
29568;SDS011;16501;51.462;14.346;2024-03-22T09:15:11;18.25;;;9.45;;
29568;SDS011;16501;51.462;14.346;2024-03-22T09:17:36;15.18;;;8.68;;
29568;SDS011;16501;51.462;14.346;2024-03-22T09:20:01;16.73;;;10.13;;
29568;SDS011;16501;51.462;14.346;2024-03-22T09:22:29;17.20;;;10.63;;
29568;SDS011;16501;51.462;14.346;2024-03-22T09:24:57;19.48;;;11.48;;
29568;SDS011;16501;51.462;14.346;2024-03-22T09:27:22;19.35;;;10.60;;
29568;SDS011;16501;51.462;14.346;2024-03-22T09:29:48;21.23;;;11.48;;
29568;SDS011;16501;51.462;14.346;2024-03-22T09:32:13;21.20;;;11.23;;
29568;SDS011;16501;51.462;14.346;2024-03-22T09:34:39;18.77;;;11.85;;
29568;SDS011;16501;51.462;14.346;2024-03-22T09:37:05;22.33;;;11.90;;
29568;SDS011;16501;51.462;14.346;2024-03-22T09:39:30;18.33;;;10.95;;
29568;SDS011;16501;51.462;14.346;2024-03-22T09:41:57;18.10;;;10.77;;
29568;SDS011;16501;51.462;14.346;2024-03-22T09:44:22;20.60;;;11.68;;
29568;SDS011;16501;51.462;14.346;2024-03-22T09:46:48;21.27;;;12.18;;
29568;SDS011;16501;51.462;14.346;2024-03-22T09:49:15;21.27;;;12.13;;
29568;SDS011;16501;51.462;14.346;2024-03-22T09:51:41;20.42;;;11.68;;
29568;SDS011;16501;51.462;14.346;2024-03-22T09:54:09;19.02;;;11.50;;
29568;SDS011;16501;51.462;14.346;2024-03-22T09:56:35;21.08;;;12.23;;
29568;SDS011;16501;51.462;14.346;2024-03-22T09:59:03;19.17;;;12.05;;
29568;SDS011;16501;51.462;14.346;2024-03-22T10:01:28;19.77;;;11.38;;
29568;SDS011;16501;51.462;14.346;2024-03-22T10:03:54;20.17;;;11.05;;
29568;SDS011;16501;51.462;14.346;2024-03-22T10:06:20;17.42;;;10.52;;
29568;SDS011;16501;51.462;14.346;2024-03-22T10:08:45;20.02;;;11.10;;
29568;SDS011;16501;51.462;14.346;2024-03-22T10:11:11;18.02;;;11.43;;
29568;SDS011;16501;51.462;14.346;2024-03-22T10:13:36;17.77;;;10.95;;
29568;SDS011;16501;51.462;14.346;2024-03-22T10:16:02;17.85;;;10.95;;
29568;SDS011;16501;51.462;14.346;2024-03-22T10:18:27;16.55;;;9.80;;
29568;SDS011;16501;51.462;14.346;2024-03-22T10:21:04;17.70;;;9.80;;
29568;SDS011;16501;51.462;14.346;2024-03-22T10:23:30;15.40;;;9.27;;
29568;SDS011;16501;51.462;14.346;2024-03-22T10:25:56;15.40;;;9.05;;
29568;SDS011;16501;51.462;14.346;2024-03-22T10:28:23;13.10;;;8.80;;
29568;SDS011;16501;51.462;14.346;2024-03-22T10:30:50;15.30;;;9.35;;
29568;SDS011;16501;51.462;14.346;2024-03-22T10:33:15;18.70;;;8.63;;
29568;SDS011;16501;51.462;14.346;2024-03-22T10:35:43;16.60;;;9.27;;
29568;SDS011;16501;51.462;14.346;2024-03-22T10:38:12;14.35;;;8.82;;
29568;SDS011;16501;51.462;14.346;2024-03-22T10:40:38;16.48;;;9.15;;
29568;SDS011;16501;51.462;14.346;2024-03-22T10:43:05;16.75;;;9.18;;
29568;SDS011;16501;51.462;14.346;2024-03-22T10:45:30;17.60;;;8.95;;
29568;SDS011;16501;51.462;14.346;2024-03-22T10:47:56;16.38;;;8.98;;
29568;SDS011;16501;51.462;14.346;2024-03-22T10:50:22;15.57;;;9.32;;
29568;SDS011;16501;51.462;14.346;2024-03-22T10:52:50;15.77;;;8.00;;
29568;SDS011;16501;51.462;14.346;2024-03-22T10:55:23;13.27;;;8.45;;
29568;SDS011;16501;51.462;14.346;2024-03-22T10:57:55;15.52;;;8.77;;
29568;SDS011;16501;51.462;14.346;2024-03-22T11:00:31;19.67;;;9.05;;
29568;SDS011;16501;51.462;14.346;2024-03-22T11:02:58;16.35;;;8.85;;
29568;SDS011;16501;51.462;14.346;2024-03-22T11:05:23;16.17;;;8.60;;
29568;SDS011;16501;51.462;14.346;2024-03-22T11:08:02;14.80;;;8.77;;
29568;SDS011;16501;51.462;14.346;2024-03-22T11:10:34;16.45;;;8.68;;
29568;SDS011;16501;51.462;14.346;2024-03-22T11:13:03;14.95;;;8.40;;
29568;SDS011;16501;51.462;14.346;2024-03-22T11:15:29;13.63;;;7.95;;
29568;SDS011;16501;51.462;14.346;2024-03-22T11:17:55;15.75;;;9.55;;
29568;SDS011;16501;51.462;14.346;2024-03-22T11:20:21;13.82;;;8.18;;
29568;SDS011;16501;51.462;14.346;2024-03-22T11:22:46;12.32;;;7.97;;
29568;SDS011;16501;51.462;14.346;2024-03-22T11:25:11;21.65;;;11.40;;
29568;SDS011;16501;51.462;14.346;2024-03-22T11:27:37;26.90;;;14.13;;
29568;SDS011;16501;51.462;14.346;2024-03-22T11:30:02;43.13;;;22.67;;
29568;SDS011;16501;51.462;14.346;2024-03-22T11:32:28;22.58;;;11.80;;
29568;SDS011;16501;51.462;14.346;2024-03-22T11:34:54;16.83;;;9.05;;
29568;SDS011;16501;51.462;14.346;2024-03-22T11:37:19;14.65;;;8.02;;
29568;SDS011;16501;51.462;14.346;2024-03-22T11:39:44;15.90;;;8.15;;
29568;SDS011;16501;51.462;14.346;2024-03-22T11:42:09;13.27;;;8.20;;
29568;SDS011;16501;51.462;14.346;2024-03-22T11:44:36;10.27;;;7.03;;
29568;SDS011;16501;51.462;14.346;2024-03-22T11:47:03;11.13;;;7.18;;
29568;SDS011;16501;51.462;14.346;2024-03-22T11:49:29;10.70;;;6.55;;
29568;SDS011;16501;51.462;14.346;2024-03-22T11:51:55;11.65;;;7.05;;
29568;SDS011;16501;51.462;14.346;2024-03-22T11:54:21;11.73;;;6.70;;
29568;SDS011;16501;51.462;14.346;2024-03-22T11:56:47;12.10;;;6.20;;
29568;SDS011;16501;51.462;14.346;2024-03-22T11:59:12;11.20;;;6.78;;
29568;SDS011;16501;51.462;14.346;2024-03-22T12:01:37;10.10;;;6.55;;
29568;SDS011;16501;51.462;14.346;2024-03-22T12:04:03;9.63;;;5.70;;
29568;SDS011;16501;51.462;14.346;2024-03-22T12:06:43;8.75;;;5.63;;
29568;SDS011;16501;51.462;14.346;2024-03-22T12:09:08;12.50;;;6.43;;
29568;SDS011;16501;51.462;14.346;2024-03-22T12:11:36;9.50;;;6.15;;
29568;SDS011;16501;51.462;14.346;2024-03-22T12:14:01;11.63;;;5.95;;
29568;SDS011;16501;51.462;14.346;2024-03-22T12:16:26;10.57;;;5.47;;
29568;SDS011;16501;51.462;14.346;2024-03-22T12:18:52;15.55;;;6.20;;
29568;SDS011;16501;51.462;14.346;2024-03-22T12:21:17;6.72;;;4.95;;
29568;SDS011;16501;51.462;14.346;2024-03-22T12:23:42;12.80;;;6.10;;
29568;SDS011;16501;51.462;14.346;2024-03-22T12:26:07;8.77;;;5.07;;
29568;SDS011;16501;51.462;14.346;2024-03-22T12:28:33;10.02;;;5.28;;
29568;SDS011;16501;51.462;14.346;2024-03-22T12:30:58;10.80;;;5.28;;
29568;SDS011;16501;51.462;14.346;2024-03-22T12:33:23;9.93;;;5.35;;
29568;SDS011;16501;51.462;14.346;2024-03-22T12:35:48;13.27;;;5.75;;
29568;SDS011;16501;51.462;14.346;2024-03-22T12:38:14;14.10;;;5.40;;
29568;SDS011;16501;51.462;14.346;2024-03-22T12:40:39;13.07;;;5.55;;
29568;SDS011;16501;51.462;14.346;2024-03-22T12:43:05;10.70;;;5.20;;
29568;SDS011;16501;51.462;14.346;2024-03-22T12:45:31;7.75;;;5.07;;
29568;SDS011;16501;51.462;14.346;2024-03-22T12:47:57;6.35;;;4.75;;
29568;SDS011;16501;51.462;14.346;2024-03-22T12:50:23;11.55;;;5.93;;
29568;SDS011;16501;51.462;14.346;2024-03-22T12:52:48;8.55;;;4.68;;
29568;SDS011;16501;51.462;14.346;2024-03-22T12:55:13;6.45;;;4.38;;
29568;SDS011;16501;51.462;14.346;2024-03-22T12:57:38;8.45;;;5.28;;
29568;SDS011;16501;51.462;14.346;2024-03-22T13:00:05;9.02;;;4.53;;
29568;SDS011;16501;51.462;14.346;2024-03-22T13:02:37;6.68;;;4.18;;
29568;SDS011;16501;51.462;14.346;2024-03-22T13:05:03;10.55;;;4.78;;
29568;SDS011;16501;51.462;14.346;2024-03-22T13:07:29;7.85;;;4.00;;
29568;SDS011;16501;51.462;14.346;2024-03-22T13:09:55;12.30;;;5.30;;
29568;SDS011;16501;51.462;14.346;2024-03-22T13:12:20;7.15;;;5.13;;
29568;SDS011;16501;51.462;14.346;2024-03-22T13:14:45;8.10;;;5.15;;
29568;SDS011;16501;51.462;14.346;2024-03-22T13:17:11;9.93;;;4.85;;
29568;SDS011;16501;51.462;14.346;2024-03-22T13:19:37;7.55;;;4.40;;
29568;SDS011;16501;51.462;14.346;2024-03-22T13:22:02;8.25;;;4.88;;
29568;SDS011;16501;51.462;14.346;2024-03-22T13:24:27;8.07;;;4.82;;
29568;SDS011;16501;51.462;14.346;2024-03-22T13:26:52;7.85;;;4.88;;
29568;SDS011;16501;51.462;14.346;2024-03-22T13:29:18;8.82;;;4.65;;
29568;SDS011;16501;51.462;14.346;2024-03-22T13:31:43;5.90;;;3.85;;
29568;SDS011;16501;51.462;14.346;2024-03-22T13:34:08;6.10;;;4.28;;
29568;SDS011;16501;51.462;14.346;2024-03-22T13:36:34;7.85;;;3.97;;
29568;SDS011;16501;51.462;14.346;2024-03-22T13:39:01;8.65;;;4.50;;
29568;SDS011;16501;51.462;14.346;2024-03-22T13:41:27;8.63;;;4.25;;
29568;SDS011;16501;51.462;14.346;2024-03-22T13:43:52;6.43;;;4.18;;
29568;SDS011;16501;51.462;14.346;2024-03-22T13:46:18;8.38;;;4.88;;
29568;SDS011;16501;51.462;14.346;2024-03-22T13:48:43;9.05;;;5.10;;
29568;SDS011;16501;51.462;14.346;2024-03-22T13:51:08;14.05;;;5.72;;
29568;SDS011;16501;51.462;14.346;2024-03-22T13:53:35;8.32;;;5.32;;
29568;SDS011;16501;51.462;14.346;2024-03-22T13:56:01;8.50;;;5.35;;
29568;SDS011;16501;51.462;14.346;2024-03-22T13:58:27;8.93;;;4.90;;
29568;SDS011;16501;51.462;14.346;2024-03-22T14:00:52;12.02;;;5.78;;
29568;SDS011;16501;51.462;14.346;2024-03-22T14:03:18;10.68;;;6.28;;
29568;SDS011;16501;51.462;14.346;2024-03-22T14:05:44;20.08;;;11.30;;
29568;SDS011;16501;51.462;14.346;2024-03-22T14:08:09;25.00;;;14.45;;